createdAt,value
2019-03-26T00:02:29.860Z,99.90
2019-03-26T00:05:00.489Z,99.90
2019-03-26T00:07:31.167Z,99.90
2019-03-26T00:10:02.362Z,99.90
2019-03-26T00:12:33.128Z,99.90
2019-03-26T00:15:04.955Z,99.90
2019-03-26T00:17:36.266Z,99.90
2019-03-26T00:20:07.932Z,99.90
2019-03-26T00:22:38.802Z,99.90
2019-03-26T00:25:09.663Z,99.90
2019-03-26T00:27:40.377Z,99.90
2019-03-26T00:30:12.041Z,99.90
2019-03-26T00:32:42.788Z,99.90
2019-03-26T00:35:13.500Z,99.90
2019-03-26T00:37:44.174Z,99.90
2019-03-26T00:40:15.297Z,99.90
2019-03-26T00:42:45.986Z,99.90
2019-03-26T00:45:16.941Z,99.90
2019-03-26T00:47:47.617Z,99.90
2019-03-26T00:50:18.255Z,99.90
2019-03-26T00:52:48.948Z,99.90
2019-03-26T00:55:22.780Z,99.90
2019-03-26T00:57:52.417Z,99.90
2019-03-26T01:00:38.385Z,99.90
2019-03-26T01:03:09.354Z,99.90
2019-03-26T01:05:40.378Z,99.90
2019-03-26T01:08:12.413Z,99.90
2019-03-26T01:10:43.781Z,99.90
2019-03-26T01:13:14.481Z,99.90
2019-03-26T01:15:45.218Z,99.90
2019-03-26T01:18:16.169Z,99.90
2019-03-26T01:20:47.028Z,99.90
2019-03-26T01:23:17.929Z,99.90
2019-03-26T01:25:48.933Z,99.90
2019-03-26T01:28:19.702Z,99.90
2019-03-26T01:30:50.408Z,99.90
2019-03-26T01:33:21.012Z,99.90
2019-03-26T01:35:51.638Z,99.90
2019-03-26T01:38:22.325Z,99.90
2019-03-26T01:40:52.950Z,99.90
2019-03-26T01:43:23.722Z,99.90
2019-03-26T01:45:54.766Z,99.90
2019-03-26T01:48:25.466Z,99.90
2019-03-26T01:50:56.082Z,99.90
2019-03-26T01:53:26.816Z,99.90
2019-03-26T01:55:57.530Z,99.90
2019-03-26T01:58:28.190Z,99.90
2019-03-26T02:00:58.833Z,99.90
2019-03-26T02:03:29.992Z,99.90
2019-03-26T02:06:00.644Z,99.90
2019-03-26T02:08:31.742Z,99.90
2019-03-26T02:11:02.662Z,99.90
2019-03-26T02:13:33.311Z,99.90
2019-03-26T02:16:04.006Z,99.90
2019-03-26T02:18:34.728Z,99.90
2019-03-26T02:21:06.195Z,99.90
2019-03-26T02:23:37.014Z,99.90
2019-03-26T02:26:08.388Z,99.90
2019-03-26T02:28:39.093Z,99.90
2019-03-26T02:31:09.883Z,99.90
2019-03-26T02:33:40.562Z,99.90
2019-03-26T02:36:11.686Z,99.90
2019-03-26T02:38:42.912Z,99.90
2019-03-26T02:41:14.186Z,99.80
2019-03-26T02:43:45.279Z,99.70
2019-03-26T02:46:15.978Z,99.60
2019-03-26T02:48:48.369Z,99.40
2019-03-26T02:51:19.002Z,99.50
2019-03-26T02:53:49.739Z,99.30
2019-03-26T02:56:20.458Z,99.20
2019-03-26T02:58:51.081Z,98.90
2019-03-26T03:01:21.841Z,99.00
2019-03-26T03:03:52.610Z,98.90
2019-03-26T03:06:23.304Z,98.70
2019-03-26T03:08:53.996Z,98.80
2019-03-26T03:11:24.685Z,98.70
2019-03-26T03:13:55.358Z,98.80
2019-03-26T03:16:26.485Z,98.90
2019-03-26T03:18:57.166Z,99.00
2019-03-26T03:21:27.802Z,99.00
2019-03-26T03:23:58.503Z,98.80
2019-03-26T03:26:29.253Z,98.90
2019-03-26T03:29:00.060Z,98.80
2019-03-26T03:31:30.817Z,98.80
2019-03-26T03:34:01.597Z,98.80
2019-03-26T03:36:32.346Z,98.90
2019-03-26T03:39:04.793Z,98.80
2019-03-26T03:41:35.523Z,98.70
2019-03-26T03:44:06.370Z,98.70
2019-03-26T03:46:37.323Z,98.90
2019-03-26T03:49:08.202Z,99.00
2019-03-26T03:51:40.784Z,99.00
2019-03-26T03:54:12.823Z,99.00
2019-03-26T03:56:44.394Z,99.00
2019-03-26T03:59:15.548Z,99.00
2019-03-26T04:01:46.725Z,99.10
2019-03-26T04:04:17.619Z,99.00
2019-03-26T04:06:48.366Z,99.20
2019-03-26T04:09:19.738Z,99.20
2019-03-26T04:11:50.589Z,99.30
2019-03-26T04:14:21.726Z,99.30
2019-03-26T04:16:52.398Z,99.10
2019-03-26T04:19:23.003Z,98.90
2019-03-26T04:21:53.827Z,98.80
2019-03-26T04:24:24.496Z,99.00
2019-03-26T04:26:55.148Z,98.50
2019-03-26T04:29:25.823Z,98.20
2019-03-26T04:31:56.477Z,98.10
2019-03-26T04:34:27.144Z,98.00
2019-03-26T04:36:58.187Z,98.10
2019-03-26T04:39:28.845Z,97.50
2019-03-26T04:41:59.600Z,97.30
2019-03-26T04:44:33.125Z,96.50
2019-03-26T04:47:04.974Z,95.90
2019-03-26T04:49:35.685Z,95.90
2019-03-26T04:52:06.440Z,95.60
2019-03-26T04:54:37.121Z,95.50
2019-03-26T04:57:07.846Z,95.40
2019-03-26T04:59:38.976Z,95.10
2019-03-26T05:02:09.861Z,94.60
2019-03-26T05:04:40.521Z,94.80
2019-03-26T05:07:13.263Z,94.60
2019-03-26T05:09:44.153Z,94.40
2019-03-26T05:12:15.170Z,94.20
2019-03-26T05:14:45.887Z,94.30
2019-03-26T05:17:17.702Z,94.10
2019-03-26T05:19:48.384Z,93.60
2019-03-26T05:22:24.438Z,93.90
2019-03-26T05:24:51.838Z,93.80
2019-03-26T05:27:22.532Z,94.00
2019-03-26T05:29:53.181Z,93.50
2019-03-26T05:32:23.823Z,92.70
2019-03-26T05:34:54.523Z,92.50
2019-03-26T05:37:26.821Z,92.30
2019-03-26T05:39:57.522Z,92.20
2019-03-26T05:42:28.210Z,91.60
2019-03-26T05:44:59.040Z,91.20
2019-03-26T05:47:29.735Z,90.80
2019-03-26T05:50:00.426Z,90.70
2019-03-26T05:52:31.554Z,90.90
2019-03-26T05:55:02.214Z,90.50
2019-03-26T05:57:32.896Z,90.90
2019-03-26T06:00:03.560Z,90.80
2019-03-26T06:02:34.201Z,90.90
2019-03-26T06:05:05.352Z,91.00
2019-03-26T06:07:36.256Z,90.90
2019-03-26T06:10:09.067Z,91.10
2019-03-26T06:12:39.809Z,90.90
2019-03-26T06:15:11.337Z,90.80
2019-03-26T06:17:41.947Z,90.30
2019-03-26T06:20:13.499Z,89.60
2019-03-26T06:22:44.376Z,89.10
2019-03-26T06:25:14.991Z,88.80
2019-03-26T06:27:45.604Z,88.60
2019-03-26T06:30:16.975Z,88.20
2019-03-26T06:32:47.703Z,87.60
2019-03-26T06:35:18.836Z,87.80
2019-03-26T06:37:49.438Z,87.60
2019-03-26T06:40:20.216Z,87.40
2019-03-26T06:42:50.850Z,87.40
2019-03-26T06:45:21.509Z,87.40
2019-03-26T06:47:54.386Z,87.30
2019-03-26T06:50:25.267Z,87.00
2019-03-26T06:52:55.901Z,86.90
2019-03-26T06:55:26.575Z,86.10
2019-03-26T06:57:57.301Z,85.90
2019-03-26T07:00:37.269Z,85.80
2019-03-26T07:03:08.614Z,85.10
2019-03-26T07:05:39.198Z,82.70
2019-03-26T07:08:09.921Z,83.40
2019-03-26T07:10:40.637Z,83.30
2019-03-26T07:13:11.713Z,82.80
2019-03-26T07:15:42.507Z,83.00
2019-03-26T07:18:13.208Z,82.50
2019-03-26T07:20:44.437Z,81.50
2019-03-26T07:23:15.729Z,80.50
2019-03-26T07:25:46.403Z,79.70
2019-03-26T07:28:17.396Z,77.90
2019-03-26T07:30:48.218Z,77.50
2019-03-26T07:33:19.738Z,77.10
2019-03-26T07:35:51.165Z,76.90
2019-03-26T07:38:24.928Z,75.90
2019-03-26T07:41:01.982Z,75.10
2019-03-26T07:43:33.405Z,73.80
2019-03-26T07:46:04.372Z,71.60
2019-03-26T07:48:35.877Z,70.20
2019-03-26T07:51:06.743Z,66.80
2019-03-26T07:53:37.692Z,66.60
2019-03-26T07:56:08.536Z,61.70
2019-03-26T07:58:39.567Z,61.80
2019-03-26T08:01:10.535Z,59.90
2019-03-26T08:03:41.356Z,59.40
2019-03-26T08:06:12.225Z,56.80
2019-03-26T08:08:43.528Z,54.60
2019-03-26T08:11:14.311Z,52.60
2019-03-26T08:13:45.046Z,49.80
2019-03-26T08:16:16.007Z,47.50
2019-03-26T08:18:46.946Z,46.50
2019-03-26T08:21:18.410Z,42.70
2019-03-26T08:23:49.539Z,41.70
2019-03-26T08:26:20.697Z,39.40
2019-03-26T08:28:51.761Z,38.50
2019-03-26T08:31:22.674Z,37.90
2019-03-26T08:33:53.915Z,34.70
2019-03-26T08:36:24.779Z,34.40
2019-03-26T08:38:56.103Z,32.40
2019-03-26T08:41:27.020Z,29.90
2019-03-26T08:43:57.719Z,29.50
2019-03-26T08:46:29.624Z,28.00
2019-03-26T08:49:00.456Z,26.70
2019-03-26T08:51:31.205Z,25.50
2019-03-26T08:54:01.979Z,23.00
2019-03-26T08:56:32.989Z,22.20
2019-03-26T08:59:03.836Z,21.50
2019-03-26T09:01:34.628Z,19.40
2019-03-26T09:04:06.635Z,18.40
2019-03-26T09:06:37.616Z,19.20
2019-03-26T09:09:09.203Z,17.40
2019-03-26T09:11:40.220Z,17.80
2019-03-26T09:14:10.973Z,17.50
2019-03-26T09:16:41.795Z,16.60
2019-03-26T09:19:12.777Z,16.90
2019-03-26T09:21:43.460Z,16.20
2019-03-26T09:24:14.270Z,15.60
2019-03-26T09:26:45.605Z,15.50
2019-03-26T09:29:16.385Z,16.50
2019-03-26T09:31:47.267Z,16.10
2019-03-26T09:34:18.571Z,15.50
2019-03-26T09:36:49.245Z,15.00
2019-03-26T09:39:19.859Z,15.60
2019-03-26T09:41:50.485Z,15.00
2019-03-26T09:44:21.232Z,14.40
2019-03-26T09:46:51.809Z,13.70
2019-03-26T09:49:22.506Z,15.70
2019-03-26T09:51:53.112Z,19.60
2019-03-26T09:54:23.823Z,21.30
2019-03-26T09:56:54.555Z,24.20
2019-03-26T09:59:25.399Z,29.60
2019-03-26T10:01:56.607Z,28.20
2019-03-26T10:04:27.230Z,27.40
2019-03-26T10:06:57.852Z,34.90
2019-03-26T10:09:28.959Z,34.30
2019-03-26T10:12:00.268Z,34.50
2019-03-26T10:14:31.174Z,28.60
2019-03-26T10:17:01.866Z,24.40
2019-03-26T10:19:32.460Z,29.30
2019-03-26T10:22:03.151Z,27.60
2019-03-26T10:24:33.842Z,34.20
2019-03-26T10:27:04.628Z,37.10
2019-03-26T10:29:35.556Z,30.30
2019-03-26T10:32:06.215Z,30.50
2019-03-26T10:34:38.135Z,30.90
2019-03-26T10:37:08.953Z,29.00
2019-03-26T10:39:39.568Z,28.80
2019-03-26T10:42:10.697Z,40.50
2019-03-26T10:44:41.387Z,49.70
2019-03-26T10:47:12.792Z,44.90
2019-03-26T10:49:43.922Z,45.20
2019-03-26T10:52:14.631Z,49.40
2019-03-26T10:54:46.527Z,51.90
2019-03-26T10:57:17.155Z,49.60
2019-03-26T10:59:48.197Z,47.50
2019-03-26T11:02:19.178Z,44.80
2019-03-26T11:04:50.031Z,39.70
2019-03-26T11:07:22.257Z,43.10
2019-03-26T11:09:53.917Z,43.00
2019-03-26T11:12:24.672Z,41.90
2019-03-26T11:14:57.006Z,41.80
2019-03-26T11:17:27.886Z,47.50
2019-03-26T11:19:58.707Z,45.90
2019-03-26T11:22:29.595Z,47.20
2019-03-26T11:25:00.734Z,38.80
2019-03-26T11:27:31.586Z,39.80
2019-03-26T11:30:03.007Z,39.50
2019-03-26T11:32:33.796Z,38.70
2019-03-26T11:35:04.843Z,38.40
2019-03-26T11:37:35.797Z,39.00
2019-03-26T11:40:06.944Z,39.00
2019-03-26T11:42:37.952Z,45.40
2019-03-26T11:45:09.840Z,47.30
2019-03-26T11:47:41.484Z,48.60
2019-03-26T11:50:13.343Z,50.30
2019-03-26T11:52:44.119Z,51.80
2019-03-26T11:55:15.118Z,52.80
2019-03-26T11:57:46.463Z,53.40
2019-03-26T12:00:23.103Z,54.20
2019-03-26T12:02:53.886Z,55.20
2019-03-26T12:05:25.049Z,53.00
2019-03-26T12:07:55.826Z,53.60
2019-03-26T12:10:26.864Z,54.40
2019-03-26T12:12:57.964Z,54.90
2019-03-26T12:15:29.394Z,54.80
2019-03-26T12:18:00.368Z,55.10
2019-03-26T12:20:32.534Z,53.50
2019-03-26T12:23:03.465Z,51.50
2019-03-26T12:25:34.573Z,50.50
2019-03-26T12:28:05.789Z,47.70
2019-03-26T12:30:39.426Z,46.70
2019-03-26T12:33:10.946Z,48.70
2019-03-26T12:35:41.800Z,47.80
2019-03-26T12:38:20.770Z,49.20
2019-03-26T12:40:52.373Z,50.10
2019-03-26T12:43:25.785Z,54.20
2019-03-26T12:45:57.385Z,53.60
2019-03-26T12:48:28.398Z,55.30
2019-03-26T12:50:59.526Z,56.40
2019-03-26T12:53:30.541Z,57.80
2019-03-26T12:56:01.887Z,59.80
2019-03-26T12:58:36.259Z,63.30
2019-03-26T13:01:07.705Z,64.50
2019-03-26T13:03:38.721Z,64.80
2019-03-26T13:06:10.047Z,57.40
2019-03-26T13:08:41.209Z,51.50
2019-03-26T13:11:12.148Z,51.30
2019-03-26T13:13:43.481Z,48.50
2019-03-26T13:16:14.519Z,49.30
2019-03-26T13:18:45.526Z,48.10
2019-03-26T13:21:16.719Z,48.20
2019-03-26T13:23:47.777Z,48.50
2019-03-26T13:26:18.655Z,48.50
2019-03-26T13:28:49.762Z,49.60
2019-03-26T13:31:20.766Z,50.00
2019-03-26T13:33:51.692Z,51.00
2019-03-26T13:36:22.865Z,50.30
2019-03-26T13:38:53.902Z,50.30
2019-03-26T13:41:25.011Z,48.70
2019-03-26T13:43:56.807Z,47.90
2019-03-26T13:46:28.990Z,49.80
2019-03-26T13:49:00.157Z,47.50
2019-03-26T13:51:32.593Z,47.90
2019-03-26T13:54:03.284Z,47.50
2019-03-26T13:56:34.632Z,48.60
2019-03-26T13:59:07.464Z,47.70
2019-03-26T14:01:38.131Z,48.90
2019-03-26T14:04:09.529Z,49.20
2019-03-26T14:06:40.336Z,51.10
2019-03-26T14:09:11.425Z,51.40
2019-03-26T14:11:42.092Z,50.20
2019-03-26T14:14:13.287Z,49.50
2019-03-26T14:16:44.355Z,50.00
2019-03-26T14:19:15.047Z,48.10
2019-03-26T14:21:47.178Z,49.30
2019-03-26T14:24:23.495Z,49.50
2019-03-26T14:26:54.347Z,51.30
2019-03-26T14:29:25.170Z,49.90
2019-03-26T14:31:55.906Z,48.90
2019-03-26T14:34:26.581Z,50.00
2019-03-26T14:36:57.377Z,49.90
2019-03-26T14:39:28.150Z,50.80
2019-03-26T14:41:59.362Z,52.20
2019-03-26T14:44:29.977Z,52.10
2019-03-26T14:47:00.614Z,53.00
2019-03-26T14:49:31.282Z,52.60
2019-03-26T14:52:01.878Z,52.00
2019-03-26T14:54:32.635Z,51.40
2019-03-26T14:57:03.358Z,51.70
2019-03-26T14:59:34.999Z,52.70
2019-03-26T15:02:05.702Z,51.40
2019-03-26T15:04:36.521Z,52.20
2019-03-26T15:07:07.245Z,51.50
2019-03-26T15:09:37.973Z,54.10
2019-03-26T15:12:08.640Z,53.50
2019-03-26T15:14:39.334Z,51.50
2019-03-26T15:17:09.959Z,50.70
2019-03-26T15:19:40.555Z,51.60
2019-03-26T15:22:11.230Z,51.40
2019-03-26T15:24:41.891Z,52.90
2019-03-26T15:27:12.643Z,53.00
2019-03-26T15:29:43.663Z,52.40
2019-03-26T15:32:14.425Z,53.00
2019-03-26T15:34:45.117Z,53.80
2019-03-26T15:37:15.905Z,52.40
2019-03-26T15:39:46.544Z,53.70
2019-03-26T15:42:17.199Z,53.00
2019-03-26T15:44:47.784Z,54.10
2019-03-26T15:47:18.478Z,53.70
2019-03-26T15:49:49.262Z,54.20
2019-03-26T15:52:19.846Z,54.20
2019-03-26T15:54:50.481Z,54.60
2019-03-26T15:57:24.364Z,55.80
2019-03-26T15:59:55.254Z,56.80
2019-03-26T16:02:25.975Z,56.60
2019-03-26T16:04:56.733Z,56.80
2019-03-26T16:07:27.334Z,57.30
2019-03-26T16:09:58.370Z,57.50
2019-03-26T16:12:40.533Z,56.40
2019-03-26T16:15:01.368Z,55.60
2019-03-26T16:17:31.988Z,57.10
2019-03-26T16:20:02.584Z,57.00
2019-03-26T16:22:33.609Z,56.50
2019-03-26T16:25:04.420Z,55.70
2019-03-26T16:27:35.506Z,55.80
2019-03-26T16:30:06.861Z,56.20
2019-03-26T16:32:37.831Z,57.40
2019-03-26T16:35:08.847Z,57.90
2019-03-26T16:37:39.804Z,58.50
2019-03-26T16:40:10.687Z,59.70
2019-03-26T16:42:41.401Z,60.60
2019-03-26T16:45:13.022Z,61.70
2019-03-26T16:47:43.671Z,62.10
2019-03-26T16:50:14.510Z,61.80
2019-03-26T16:52:45.363Z,61.60
2019-03-26T16:55:16.257Z,61.50
2019-03-26T16:57:47.159Z,62.20
2019-03-26T17:00:26.255Z,61.80
2019-03-26T17:02:56.933Z,62.30
2019-03-26T17:05:28.663Z,63.20
2019-03-26T17:07:59.607Z,61.80
2019-03-26T17:10:30.609Z,63.80
2019-03-26T17:13:01.675Z,64.80
2019-03-26T17:15:32.394Z,64.80
2019-03-26T17:18:03.240Z,64.80
2019-03-26T17:20:34.082Z,65.10
2019-03-26T17:23:05.204Z,65.40
2019-03-26T17:25:36.220Z,65.30
2019-03-26T17:28:06.932Z,66.30
2019-03-26T17:30:37.577Z,66.50
2019-03-26T17:33:08.403Z,68.60
2019-03-26T17:35:39.112Z,70.50
2019-03-26T17:38:09.894Z,70.50
2019-03-26T17:40:40.690Z,70.80
2019-03-26T17:43:12.920Z,71.60
2019-03-26T17:45:43.737Z,72.20
2019-03-26T17:48:14.925Z,72.70
2019-03-26T17:50:45.660Z,74.80
2019-03-26T17:53:16.445Z,73.80
2019-03-26T17:55:49.207Z,74.20
2019-03-26T17:58:19.918Z,74.80
2019-03-26T18:00:51.319Z,75.60
2019-03-26T18:03:26.593Z,75.70
2019-03-26T18:05:54.775Z,75.70
2019-03-26T18:08:25.399Z,74.60
2019-03-26T18:10:56.341Z,73.00
2019-03-26T18:13:27.047Z,72.70
2019-03-26T18:15:57.737Z,70.30
2019-03-26T18:18:28.359Z,69.70
2019-03-26T18:20:59.282Z,69.60
2019-03-26T18:23:29.959Z,69.40
2019-03-26T18:26:01.158Z,69.20
2019-03-26T18:28:31.922Z,69.00
2019-03-26T18:31:03.428Z,68.90
2019-03-26T18:33:34.078Z,68.30
2019-03-26T18:36:04.862Z,67.80
2019-03-26T18:38:35.881Z,66.60
2019-03-26T18:41:06.675Z,66.30
2019-03-26T18:43:37.407Z,65.00
2019-03-26T18:46:08.081Z,64.50
2019-03-26T18:48:41.393Z,64.20
2019-03-26T18:51:11.735Z,64.20
2019-03-26T18:53:42.333Z,64.30
2019-03-26T18:56:12.965Z,62.70
2019-03-26T18:58:43.632Z,62.00
2019-03-26T19:01:14.926Z,60.70
2019-03-26T19:03:45.871Z,59.00
2019-03-26T19:06:16.628Z,57.00
2019-03-26T19:08:47.291Z,55.60
2019-03-26T19:11:18.992Z,55.40
2019-03-26T19:13:49.701Z,55.00
2019-03-26T19:16:20.669Z,54.80
2019-03-26T19:18:51.382Z,56.10
2019-03-26T19:21:22.137Z,55.60
2019-03-26T19:24:03.253Z,54.20
2019-03-26T19:26:25.168Z,53.40
2019-03-26T19:28:55.969Z,53.60
2019-03-26T19:31:26.746Z,54.20
2019-03-26T19:33:57.528Z,55.40
2019-03-26T19:36:28.407Z,56.40
2019-03-26T19:38:59.105Z,57.00
2019-03-26T19:41:30.072Z,58.10
2019-03-26T19:44:01.067Z,59.20
2019-03-26T19:46:31.912Z,60.60
2019-03-26T19:49:02.704Z,62.30
2019-03-26T19:51:33.660Z,62.80
2019-03-26T19:54:04.473Z,63.60
2019-03-26T19:56:35.692Z,64.10
2019-03-26T19:59:06.555Z,64.90
2019-03-26T20:01:37.378Z,66.20
2019-03-26T20:04:08.725Z,65.60
2019-03-26T20:06:39.348Z,65.70
2019-03-26T20:09:10.294Z,65.60
2019-03-26T20:11:40.945Z,65.90
2019-03-26T20:14:11.618Z,66.20
2019-03-26T20:16:42.413Z,67.50
2019-03-26T20:19:13.273Z,68.00
2019-03-26T20:21:43.907Z,68.70
2019-03-26T20:24:14.658Z,70.60
2019-03-26T20:26:45.823Z,69.90
2019-03-26T20:29:17.014Z,70.30
2019-03-26T20:31:50.882Z,70.50
2019-03-26T20:34:22.905Z,70.60
2019-03-26T20:36:53.920Z,70.50
2019-03-26T20:39:24.744Z,70.40
2019-03-26T20:41:55.759Z,70.20
2019-03-26T20:44:26.676Z,70.00
2019-03-26T20:46:57.725Z,69.90
2019-03-26T20:49:29.544Z,70.00
2019-03-26T20:52:00.683Z,69.90
2019-03-26T20:54:31.919Z,70.00
2019-03-26T20:57:03.179Z,69.90
2019-03-26T20:59:34.855Z,69.90
2019-03-26T21:02:05.595Z,69.50
2019-03-26T21:04:37.131Z,69.80
2019-03-26T21:07:08.620Z,69.60
2019-03-26T21:09:39.569Z,69.40
2019-03-26T21:12:10.536Z,69.30
2019-03-26T21:14:41.717Z,69.30
2019-03-26T21:17:12.391Z,69.40
2019-03-26T21:19:43.783Z,69.60
2019-03-26T21:22:16.561Z,69.20
2019-03-26T21:24:49.269Z,69.30
2019-03-26T21:27:20.046Z,69.70
2019-03-26T21:29:51.152Z,69.70
2019-03-26T21:32:23.309Z,69.70
2019-03-26T21:34:54.293Z,69.70
2019-03-26T21:37:25.114Z,69.70
2019-03-26T21:39:56.582Z,69.60
2019-03-26T21:42:28.571Z,69.70
2019-03-26T21:44:59.384Z,69.00
2019-03-26T21:47:33.214Z,69.20
2019-03-26T21:50:04.086Z,69.20
2019-03-26T21:52:35.457Z,68.40
2019-03-26T21:55:06.902Z,68.50
2019-03-26T21:57:38.902Z,68.90
2019-03-26T22:00:10.819Z,68.10
2019-03-26T22:02:41.806Z,68.20
2019-03-26T22:05:13.330Z,68.00
2019-03-26T22:07:44.155Z,68.10
2019-03-26T22:10:15.488Z,67.90
2019-03-26T22:12:46.156Z,67.90
2019-03-26T22:15:17.877Z,68.10
2019-03-26T22:17:49.188Z,67.80
2019-03-26T22:20:20.006Z,68.50
2019-03-26T22:22:51.141Z,68.00
2019-03-26T22:25:21.853Z,67.50
2019-03-26T22:27:53.016Z,67.80
2019-03-26T22:30:25.675Z,67.70
2019-03-26T22:32:56.785Z,67.70
2019-03-26T22:35:27.698Z,68.20
2019-03-26T22:37:58.523Z,68.00
2019-03-26T22:40:29.759Z,68.20
2019-03-26T22:43:00.863Z,68.50
2019-03-26T22:45:31.839Z,67.80
2019-03-26T22:48:03.087Z,67.70
2019-03-26T22:50:34.434Z,67.70
2019-03-26T22:53:05.517Z,67.20
2019-03-26T22:55:36.425Z,68.10
2019-03-26T22:58:07.198Z,66.90
2019-03-26T23:00:38.553Z,67.10
2019-03-26T23:03:09.667Z,66.30
2019-03-26T23:05:40.527Z,66.70
2019-03-26T23:08:11.480Z,66.70
2019-03-26T23:10:42.444Z,65.90
2019-03-26T23:13:13.607Z,64.80
2019-03-26T23:15:44.666Z,65.30
2019-03-26T23:18:15.672Z,65.60
2019-03-26T23:20:47.095Z,65.70
2019-03-26T23:23:18.085Z,65.70
2019-03-26T23:25:49.009Z,65.90
2019-03-26T23:28:19.828Z,65.90
2019-03-26T23:30:50.856Z,65.70
2019-03-26T23:33:22.625Z,65.70
2019-03-26T23:35:53.645Z,65.70
2019-03-26T23:38:24.383Z,66.00
2019-03-26T23:40:55.118Z,67.00
2019-03-26T23:43:25.850Z,66.10
2019-03-26T23:45:56.864Z,66.30
2019-03-26T23:48:28.040Z,66.80
2019-03-26T23:50:59.005Z,66.50
2019-03-26T23:53:29.978Z,66.00
2019-03-26T23:56:00.687Z,66.20
2019-03-26T23:58:31.500Z,66.50
